Time;durP1;ratioP1;P1;durP2;ratioP2;P2;SDS_P1;SDS_P2;PMS_P1;PMS_P2;Temp;Humidity;BMP_temperature;BMP_pressure;BME280_temperature;BME280_humidity;BME280_pressure;Samples;Min_cycle;Max_cycle;Signal;HPM_P1;HPM_P2
2023/12/15 00:02:07;;;;;;;30.30;16.50;;;;;;;;;;106963;1253;59736;-79
2023/12/15 00:04:33;;;;;;;31.00;15.70;;;;;;;;;;107095;1253;60747;-80
2023/12/15 00:07:00;;;;;;;27.90;16.90;;;;;;;;;;106960;1255;60898;-79
2023/12/15 00:09:26;;;;;;;27.20;15.40;;;;;;;;;;106940;1252;60890;-79
2023/12/15 00:11:53;;;;;;;28.80;15.00;;;;;;;;;;106955;1253;60730;-80
2023/12/15 00:14:19;;;;;;;28.70;14.00;;;;;;;;;;106925;1251;60713;-79
2023/12/15 00:16:46;;;;;;;30.60;14.70;;;;;;;;;;106945;1251;59846;-79
2023/12/15 00:19:12;;;;;;;28.10;14.50;;;;;;;;;;106916;1252;59682;-79
2023/12/15 00:21:39;;;;;;;29.00;15.50;;;;;;;;;;106997;1254;59839;-80
2023/12/15 00:24:08;;;;;;;28.20;13.70;;;;;;;;;;107011;1251;60894;-79
2023/12/15 00:26:35;;;;;;;28.10;14.60;;;;;;;;;;106999;1250;59849;-79
2023/12/15 00:29:02;;;;;;;25.60;13.80;;;;;;;;;;107445;1251;62553;-79
2023/12/15 00:31:29;;;;;;;29.40;16.40;;;;;;;;;;106973;1251;61906;-79
2023/12/15 00:33:55;;;;;;;26.90;13.80;;;;;;;;;;106983;1251;59444;-79
2023/12/15 00:36:22;;;;;;;29.10;15.80;;;;;;;;;;106963;1251;59809;-79
2023/12/15 00:38:48;;;;;;;26.10;14.10;;;;;;;;;;107027;1251;59745;-79
2023/12/15 00:41:15;;;;;;;29.50;15.10;;;;;;;;;;107025;1251;59221;-80
2023/12/15 00:43:41;;;;;;;37.00;19.00;;;;;;;;;;107012;1251;59761;-80
2023/12/15 00:46:08;;;;;;;28.20;15.50;;;;;;;;;;106982;1251;60800;-80
2023/12/15 00:48:34;;;;;;;32.40;16.10;;;;;;;;;;106985;1251;59327;-80
2023/12/15 00:51:01;;;;;;;30.80;17.10;;;;;;;;;;107014;1251;59744;-80
2023/12/15 00:53:32;;;;;;;29.60;14.40;;;;;;;;;;107091;1251;60732;-80
2023/12/15 00:55:59;;;;;;;29.70;16.90;;;;;;;;;;107650;1251;59704;-80
2023/12/15 00:58:26;;;;;;;32.70;15.80;;;;;;;;;;107010;1251;60740;-79
2023/12/15 01:00:52;;;;;;;33.20;16.00;;;;;;;;;;108801;1250;59822;-79
2023/12/15 01:03:19;;;;;;;30.50;16.80;;;;;;;;;;107226;1251;61997;-79
2023/12/15 01:05:45;;;;;;;34.10;17.80;;;;;;;;;;107020;1251;61692;-79
2023/12/15 01:08:12;;;;;;;31.60;15.40;;;;;;;;;;107017;1251;59831;-79
2023/12/15 01:10:38;;;;;;;36.70;18.30;;;;;;;;;;107083;1251;60844;-79
2023/12/15 01:13:05;;;;;;;36.40;19.60;;;;;;;;;;107025;1251;59808;-79
2023/12/15 01:15:32;;;;;;;35.00;16.90;;;;;;;;;;107097;1251;60036;-79
2023/12/15 01:17:59;;;;;;;40.80;18.10;;;;;;;;;;107095;1251;61915;-79
2023/12/15 01:20:25;;;;;;;33.30;16.10;;;;;;;;;;107133;1251;59751;-79
2023/12/15 01:22:52;;;;;;;34.90;17.70;;;;;;;;;;107180;1251;59731;-78
2023/12/15 01:25:18;;;;;;;40.10;18.10;;;;;;;;;;107155;1251;60348;-79
2023/12/15 01:27:45;;;;;;;35.80;16.40;;;;;;;;;;107592;1251;59161;-79
2023/12/15 01:30:11;;;;;;;35.80;16.70;;;;;;;;;;107974;1254;60728;-79
2023/12/15 01:32:38;;;;;;;38.30;18.50;;;;;;;;;;108003;1251;59763;-79
2023/12/15 01:35:05;;;;;;;37.90;17.80;;;;;;;;;;108124;1251;60719;-79
2023/12/15 01:37:31;;;;;;;41.10;18.90;;;;;;;;;;108450;1251;59906;-80
2023/12/15 01:39:58;;;;;;;39.80;17.90;;;;;;;;;;109242;1251;59363;-79
2023/12/15 01:42:26;;;;;;;40.80;20.30;;;;;;;;;;107805;1250;62021;-79
2023/12/15 01:44:53;;;;;;;37.30;17.20;;;;;;;;;;107744;1251;59745;-79
2023/12/15 01:47:21;;;;;;;40.60;18.40;;;;;;;;;;107703;1251;59794;-79
2023/12/15 01:49:48;;;;;;;36.10;17.20;;;;;;;;;;107694;1251;59838;-80
2023/12/15 01:52:14;;;;;;;34.20;17.00;;;;;;;;;;107335;1251;61882;-80
2023/12/15 01:54:41;;;;;;;38.70;16.10;;;;;;;;;;107085;1251;59728;-80
2023/12/15 01:57:07;;;;;;;29.40;14.20;;;;;;;;;;107030;1251;59163;-80
2023/12/15 01:59:44;;;;;;;35.50;17.20;;;;;;;;;;107056;1253;60261;-79
2023/12/15 02:02:10;;;;;;;49.40;20.10;;;;;;;;;;106941;1251;62117;-80
2023/12/15 02:04:37;;;;;;;47.60;23.90;;;;;;;;;;106979;1253;59685;-80
2023/12/15 02:07:04;;;;;;;52.70;24.60;;;;;;;;;;107022;1252;62505;-80
2023/12/15 02:09:30;;;;;;;54.60;23.00;;;;;;;;;;106983;1251;61924;-80
2023/12/15 02:11:57;;;;;;;57.30;23.60;;;;;;;;;;107014;1253;59867;-79
2023/12/15 02:14:23;;;;;;;51.10;22.00;;;;;;;;;;107038;1253;62081;-79
2023/12/15 02:16:50;;;;;;;52.00;22.30;;;;;;;;;;107010;1252;59774;-80
2023/12/15 02:19:16;;;;;;;55.60;23.10;;;;;;;;;;106898;1253;61761;-80
2023/12/15 02:21:43;;;;;;;46.60;20.90;;;;;;;;;;107142;1252;60799;-79
2023/12/15 02:24:09;;;;;;;56.50;23.30;;;;;;;;;;107040;1255;60469;-80
2023/12/15 02:26:36;;;;;;;49.10;21.30;;;;;;;;;;107042;1251;59234;-79
2023/12/15 02:29:02;;;;;;;53.70;20.30;;;;;;;;;;107024;1252;59923;-79
2023/12/15 02:31:29;;;;;;;55.40;22.50;;;;;;;;;;107068;1251;61952;-80
2023/12/15 02:33:55;;;;;;;56.60;24.10;;;;;;;;;;106958;1253;59578;-79
2023/12/15 02:36:22;;;;;;;55.50;23.30;;;;;;;;;;106956;1253;60807;-79
2023/12/15 02:38:49;;;;;;;58.40;24.90;;;;;;;;;;106951;1251;59802;-79
2023/12/15 02:41:16;;;;;;;66.70;26.50;;;;;;;;;;106977;1252;59397;-80
2023/12/15 02:43:42;;;;;;;56.60;23.60;;;;;;;;;;107021;1252;61645;-79
2023/12/15 02:46:09;;;;;;;56.00;25.10;;;;;;;;;;106937;1251;59806;-80
2023/12/15 02:48:35;;;;;;;70.60;27.80;;;;;;;;;;107024;1251;59832;-80
2023/12/15 02:51:02;;;;;;;63.90;27.30;;;;;;;;;;107012;1251;60759;-80
2023/12/15 02:53:28;;;;;;;69.50;25.50;;;;;;;;;;106942;1253;59803;-80
2023/12/15 02:55:55;;;;;;;69.10;27.70;;;;;;;;;;106993;1251;60037;-79
2023/12/15 02:58:21;;;;;;;65.40;27.50;;;;;;;;;;107015;1253;60971;-80
2023/12/15 03:00:48;;;;;;;62.60;26.60;;;;;;;;;;106925;1253;59767;-80
2023/12/15 03:03:14;;;;;;;71.10;29.00;;;;;;;;;;107069;1251;61403;-80
2023/12/15 03:05:41;;;;;;;75.70;29.10;;;;;;;;;;107020;1251;59257;-79
2023/12/15 03:08:07;;;;;;;60.20;26.10;;;;;;;;;;106966;1251;60148;-80
2023/12/15 03:10:34;;;;;;;65.10;27.50;;;;;;;;;;106966;1251;61705;-80
2023/12/15 03:13:01;;;;;;;59.90;25.90;;;;;;;;;;107000;1251;60904;-80
2023/12/15 03:15:28;;;;;;;67.10;27.60;;;;;;;;;;107011;1251;59869;-79
2023/12/15 03:17:55;;;;;;;68.20;28.60;;;;;;;;;;107047;1251;60693;-80
2023/12/15 03:20:21;;;;;;;76.00;29.10;;;;;;;;;;107033;1251;62004;-79
2023/12/15 03:22:48;;;;;;;72.20;29.20;;;;;;;;;;107027;1251;60751;-80
2023/12/15 03:25:14;;;;;;;70.20;27.20;;;;;;;;;;107075;1251;60105;-80
2023/12/15 03:27:41;;;;;;;65.60;27.70;;;;;;;;;;107082;1251;59731;-80
2023/12/15 03:30:07;;;;;;;63.60;28.70;;;;;;;;;;107054;1251;60833;-80
2023/12/15 03:32:34;;;;;;;70.30;29.10;;;;;;;;;;107132;1251;62554;-80
2023/12/15 03:35:00;;;;;;;66.40;27.40;;;;;;;;;;107072;1254;59670;-80
2023/12/15 03:37:27;;;;;;;71.10;31.60;;;;;;;;;;107035;1251;59821;-80
2023/12/15 03:39:53;;;;;;;66.10;28.20;;;;;;;;;;107057;1251;59854;-80
2023/12/15 03:42:20;;;;;;;81.10;33.70;;;;;;;;;;107501;1251;59818;-81
2023/12/15 03:44:46;;;;;;;60.50;27.50;;;;;;;;;;107555;1251;59737;-80
2023/12/15 03:47:13;;;;;;;55.60;23.30;;;;;;;;;;107021;1251;59799;-79
2023/12/15 03:49:39;;;;;;;52.40;21.90;;;;;;;;;;107047;1250;61082;-80
2023/12/15 03:52:06;;;;;;;47.50;21.10;;;;;;;;;;106995;1251;60862;-79
2023/12/15 03:54:32;;;;;;;64.10;30.40;;;;;;;;;;107006;1251;60875;-80
2023/12/15 03:56:59;;;;;;;50.40;22.50;;;;;;;;;;107052;1251;60844;-79
2023/12/15 03:59:25;;;;;;;50.80;21.20;;;;;;;;;;106913;1253;60858;-79
2023/12/15 04:01:52;;;;;;;36.60;15.80;;;;;;;;;;106934;1253;59257;-79
2023/12/15 04:04:18;;;;;;;44.70;21.70;;;;;;;;;;106963;1251;59840;-79
2023/12/15 04:06:45;;;;;;;49.60;20.60;;;;;;;;;;106898;1252;59736;-79
2023/12/15 04:09:11;;;;;;;40.60;18.90;;;;;;;;;;106938;1253;59828;-80
2023/12/15 04:11:38;;;;;;;37.20;17.00;;;;;;;;;;107271;1253;61875;-80
2023/12/15 04:14:05;;;;;;;37.80;18.00;;;;;;;;;;109491;1251;60393;-80
2023/12/15 04:16:31;;;;;;;43.70;19.20;;;;;;;;;;109469;1251;59284;-79
2023/12/15 04:18:58;;;;;;;43.70;20.90;;;;;;;;;;109481;1252;59124;-79
2023/12/15 04:21:25;;;;;;;40.80;19.10;;;;;;;;;;109514;1251;60401;-80
2023/12/15 04:23:52;;;;;;;40.60;18.20;;;;;;;;;;109579;1251;58830;-80
2023/12/15 04:26:19;;;;;;;41.60;19.80;;;;;;;;;;109584;1251;59539;-80
2023/12/15 04:28:46;;;;;;;31.60;16.00;;;;;;;;;;109525;1251;58887;-80
2023/12/15 04:31:13;;;;;;;41.70;18.30;;;;;;;;;;109577;1251;58953;-80
2023/12/15 04:33:39;;;;;;;42.70;18.60;;;;;;;;;;109571;1250;62921;-79
2023/12/15 04:36:08;;;;;;;40.20;19.40;;;;;;;;;;108103;1251;59753;-80
2023/12/15 04:38:34;;;;;;;40.20;18.10;;;;;;;;;;106978;1251;60894;-80
2023/12/15 04:41:01;;;;;;;31.30;16.70;;;;;;;;;;107051;1250;59882;-80
2023/12/15 04:43:28;;;;;;;31.60;16.70;;;;;;;;;;107044;1250;61028;-80
2023/12/15 04:45:55;;;;;;;30.80;14.80;;;;;;;;;;106991;1252;60788;-80
2023/12/15 04:48:22;;;;;;;28.70;15.60;;;;;;;;;;106997;1251;60802;-80
2023/12/15 04:50:49;;;;;;;26.60;14.00;;;;;;;;;;107017;1252;59724;-80
2023/12/15 04:53:16;;;;;;;31.10;16.20;;;;;;;;;;107014;1251;60980;-80
2023/12/15 04:55:42;;;;;;;32.10;15.90;;;;;;;;;;107039;1253;60881;-80
2023/12/15 04:58:09;;;;;;;31.90;14.40;;;;;;;;;;106963;1253;61741;-80
2023/12/15 05:00:35;;;;;;;27.10;15.40;;;;;;;;;;106920;1251;60819;-80
2023/12/15 05:03:02;;;;;;;25.40;14.00;;;;;;;;;;107426;1251;59704;-80
2023/12/15 05:05:28;;;;;;;28.50;14.90;;;;;;;;;;107501;1253;59596;-80
2023/12/15 05:07:55;;;;;;;30.10;15.90;;;;;;;;;;107590;1251;61040;-80
2023/12/15 05:10:21;;;;;;;25.40;14.00;;;;;;;;;;107519;1253;59816;-80
2023/12/15 05:12:47;;;;;;;23.40;13.00;;;;;;;;;;107342;1251;59788;-80
2023/12/15 05:15:14;;;;;;;25.40;13.30;;;;;;;;;;107810;1251;59842;-80
2023/12/15 05:17:40;;;;;;;25.10;11.90;;;;;;;;;;107502;1251;60789;-80
2023/12/15 05:20:08;;;;;;;24.90;12.20;;;;;;;;;;107222;1254;59797;-80
2023/12/15 05:22:34;;;;;;;20.90;12.30;;;;;;;;;;109523;1251;61970;-80
2023/12/15 05:25:00;;;;;;;23.20;11.20;;;;;;;;;;109508;1251;59169;-80
2023/12/15 05:27:27;;;;;;;22.40;12.30;;;;;;;;;;109553;1251;59168;-80
2023/12/15 05:29:53;;;;;;;20.50;11.00;;;;;;;;;;109558;1251;59103;-80
2023/12/15 05:32:20;;;;;;;18.50;10.30;;;;;;;;;;109188;1251;61433;-80
2023/12/15 05:34:46;;;;;;;19.20;11.70;;;;;;;;;;107364;1251;59773;-80
2023/12/15 05:37:13;;;;;;;19.80;10.80;;;;;;;;;;107243;1251;59839;-79
2023/12/15 05:39:44;;;;;;;24.00;11.00;;;;;;;;;;107195;1251;60888;-80
2023/12/15 05:42:10;;;;;;;22.60;12.00;;;;;;;;;;107260;1251;59714;-80
2023/12/15 05:44:37;;;;;;;21.00;10.70;;;;;;;;;;107378;1251;60804;-80
2023/12/15 05:47:04;;;;;;;27.30;11.00;;;;;;;;;;107355;1251;60400;-80
2023/12/15 05:49:30;;;;;;;21.70;11.50;;;;;;;;;;107194;1254;59281;-80
2023/12/15 05:51:57;;;;;;;19.70;11.00;;;;;;;;;;107196;1251;60711;-80
2023/12/15 05:54:23;;;;;;;20.20;9.60;;;;;;;;;;107388;1253;60795;-80
2023/12/15 05:56:50;;;;;;;16.90;9.80;;;;;;;;;;108916;1251;59386;-80
2023/12/15 05:59:16;;;;;;;17.30;10.20;;;;;;;;;;109501;1251;59165;-79
2023/12/15 06:01:43;;;;;;;18.30;9.40;;;;;;;;;;109545;1251;59185;-79
2023/12/15 06:04:09;;;;;;;20.00;9.80;;;;;;;;;;109519;1251;58909;-80
2023/12/15 06:06:35;;;;;;;20.40;10.00;;;;;;;;;;109537;1251;59087;-80
2023/12/15 06:09:02;;;;;;;17.60;8.60;;;;;;;;;;107324;1253;59782;-79
2023/12/15 06:11:29;;;;;;;15.00;9.50;;;;;;;;;;107271;1251;59652;-80
2023/12/15 06:13:56;;;;;;;18.30;9.50;;;;;;;;;;107370;1250;59667;-80
2023/12/15 06:16:22;;;;;;;19.40;10.30;;;;;;;;;;107289;1250;60835;-80
2023/12/15 06:18:49;;;;;;;24.40;12.50;;;;;;;;;;107197;1250;59741;-79
2023/12/15 06:21:25;;;;;;;27.40;17.00;;;;;;;;;;107260;1251;60937;-80
2023/12/15 06:23:51;;;;;;;25.60;13.40;;;;;;;;;;107357;1251;62289;-80
2023/12/15 06:26:26;;;;;;;19.10;9.80;;;;;;;;;;107312;1253;59800;-80
2023/12/15 06:28:53;;;;;;;20.30;11.50;;;;;;;;;;107698;1251;60885;-80
2023/12/15 06:31:20;;;;;;;17.30;10.50;;;;;;;;;;107773;1251;59887;-80
2023/12/15 06:33:46;;;;;;;21.60;13.10;;;;;;;;;;107729;1251;173423;-80
2023/12/15 06:36:13;;;;;;;24.00;12.60;;;;;;;;;;107888;1251;60476;-80
2023/12/15 06:38:42;;;;;;;23.20;12.40;;;;;;;;;;107810;1251;59851;-80
2023/12/15 06:41:09;;;;;;;21.40;13.20;;;;;;;;;;107226;1253;62238;-81
2023/12/15 06:43:39;;;;;;;23.90;13.10;;;;;;;;;;107487;1251;61600;-82
2023/12/15 06:46:06;;;;;;;24.00;14.30;;;;;;;;;;107284;1251;59730;-81
2023/12/15 06:48:33;;;;;;;26.50;16.10;;;;;;;;;;107324;1251;63393;-79
2023/12/15 06:50:59;;;;;;;27.20;14.20;;;;;;;;;;109111;1251;59304;-79
2023/12/15 06:53:26;;;;;;;25.20;14.70;;;;;;;;;;109498;1251;59204;-80
2023/12/15 06:55:53;;;;;;;28.60;14.50;;;;;;;;;;109521;1250;58993;-80
2023/12/15 06:58:19;;;;;;;25.80;13.80;;;;;;;;;;109514;1251;59271;-80
2023/12/15 07:00:46;;;;;;;27.60;16.00;;;;;;;;;;109517;1251;61753;-80
2023/12/15 07:03:12;;;;;;;30.70;16.40;;;;;;;;;;109516;1251;58996;-80
2023/12/15 07:05:39;;;;;;;27.50;14.20;;;;;;;;;;109485;1251;60446;-79
2023/12/15 07:08:05;;;;;;;27.20;15.00;;;;;;;;;;109492;1251;58970;-80
2023/12/15 07:10:32;;;;;;;28.30;15.60;;;;;;;;;;109571;1250;59103;-80
2023/12/15 07:12:58;;;;;;;30.70;15.60;;;;;;;;;;109483;1252;62547;-80
2023/12/15 07:15:27;;;;;;;31.00;16.80;;;;;;;;;;109446;1251;59040;-79
2023/12/15 07:17:54;;;;;;;;;;;;;;;;;;109514;1251;58852;-80
2023/12/15 07:20:21;;;;;;;26.50;15.90;;;;;;;;;;109485;1251;59453;-80
2023/12/15 07:22:47;;;;;;;30.20;17.60;;;;;;;;;;109471;1250;59075;-80
2023/12/15 07:25:14;;;;;;;32.20;18.00;;;;;;;;;;109453;1251;58955;-80
2023/12/15 07:27:41;;;;;;;28.30;15.40;;;;;;;;;;109487;1253;58895;-80
2023/12/15 07:30:07;;;;;;;25.90;14.70;;;;;;;;;;109504;1251;59766;-80
2023/12/15 07:32:34;;;;;;;25.00;14.60;;;;;;;;;;109454;1251;59089;-80
2023/12/15 07:35:03;;;;;;;25.80;15.60;;;;;;;;;;109446;1251;59116;-79
2023/12/15 07:37:30;;;;;;;25.10;14.00;;;;;;;;;;109453;1251;60441;-79
2023/12/15 07:39:56;;;;;;;29.20;15.70;;;;;;;;;;109492;1251;59022;-80
2023/12/15 07:42:23;;;;;;;47.30;23.10;;;;;;;;;;109419;1253;59600;-80
2023/12/15 07:44:49;;;;;;;42.70;21.80;;;;;;;;;;109400;1251;59188;-80
2023/12/15 07:47:15;;;;;;;32.30;18.40;;;;;;;;;;109445;1251;58888;-80
2023/12/15 07:49:42;;;;;;;36.90;19.40;;;;;;;;;;109404;1254;59195;-81
2023/12/15 07:52:08;;;;;;;31.70;17.90;;;;;;;;;;109353;1252;59719;-80
2023/12/15 07:54:36;;;;;;;32.00;17.70;;;;;;;;;;109391;1250;59089;-80
2023/12/15 07:57:02;;;;;;;31.50;17.10;;;;;;;;;;109430;1251;59252;-80
2023/12/15 07:59:28;;;;;;;46.60;21.80;;;;;;;;;;109431;1250;59115;-80
2023/12/15 08:01:55;;;;;;;38.30;20.00;;;;;;;;;;109422;1251;58959;-80
2023/12/15 08:04:21;;;;;;;42.40;25.40;;;;;;;;;;109402;1251;59003;-80
2023/12/15 08:06:48;;;;;;;69.40;51.50;;;;;;;;;;109416;1250;59150;-80
2023/12/15 08:09:14;;;;;;;65.50;44.20;;;;;;;;;;109385;1251;59262;-80
2023/12/15 08:11:41;;;;;;;38.10;23.80;;;;;;;;;;109399;1251;59047;-80
2023/12/15 08:14:09;;;;;;;40.10;25.60;;;;;;;;;;109399;1253;61960;-80
2023/12/15 08:16:35;;;;;;;33.90;21.60;;;;;;;;;;109409;1253;59011;-79
2023/12/15 08:19:07;;;;;;;34.10;21.10;;;;;;;;;;109429;1251;59366;-80
2023/12/15 08:21:33;;;;;;;29.50;18.70;;;;;;;;;;109420;1251;59222;-80
2023/12/15 08:24:00;;;;;;;24.90;16.20;;;;;;;;;;109420;1251;59136;-80
2023/12/15 08:26:27;;;;;;;87.00;38.90;;;;;;;;;;109453;1252;59259;-79
2023/12/15 08:28:53;;;;;;;125.90;52.60;;;;;;;;;;109497;1251;59146;-80
2023/12/15 08:31:20;;;;;;;83.80;37.40;;;;;;;;;;109496;1251;59847;-79
2023/12/15 08:33:47;;;;;;;92.60;41.70;;;;;;;;;;109467;1253;58944;-80
2023/12/15 08:36:14;;;;;;;88.30;38.10;;;;;;;;;;109454;1253;59112;-79
2023/12/15 08:38:41;;;;;;;80.40;35.30;;;;;;;;;;109494;1251;62755;-80
2023/12/15 08:41:07;;;;;;;49.30;27.00;;;;;;;;;;107576;1253;60862;-79
2023/12/15 08:43:34;;;;;;;61.10;33.10;;;;;;;;;;107695;1251;60410;-80
2023/12/15 08:46:00;;;;;;;107.50;50.80;;;;;;;;;;107448;1252;60200;-79
2023/12/15 08:48:27;;;;;;;56.30;30.50;;;;;;;;;;107331;1252;59644;-79
2023/12/15 08:50:53;;;;;;;73.10;40.20;;;;;;;;;;107096;1253;59806;-79
2023/12/15 08:53:20;;;;;;;72.70;45.60;;;;;;;;;;107467;1253;61992;-79
2023/12/15 08:55:47;;;;;;;51.30;29.40;;;;;;;;;;107487;1251;59925;-80
2023/12/15 08:58:13;;;;;;;44.00;24.50;;;;;;;;;;107346;1253;59724;-80
2023/12/15 09:00:40;;;;;;;40.90;22.70;;;;;;;;;;107319;1253;59767;-79
2023/12/15 09:03:07;;;;;;;47.80;26.90;;;;;;;;;;107391;1251;60804;-80
2023/12/15 09:05:34;;;;;;;36.10;21.00;;;;;;;;;;107472;1253;60272;-80
2023/12/15 09:08:02;;;;;;;74.30;37.90;;;;;;;;;;107363;1253;61862;-79
2023/12/15 09:10:33;;;;;;;82.80;41.60;;;;;;;;;;107262;1251;61882;-79
2023/12/15 09:13:02;;;;;;;94.00;43.80;;;;;;;;;;107373;1252;59287;-79
2023/12/15 09:15:29;;;;;;;55.30;31.60;;;;;;;;;;109414;1253;60729;-80
2023/12/15 09:17:55;;;;;;;40.50;21.20;;;;;;;;;;109490;1251;59554;-79
2023/12/15 09:20:23;;;;;;;37.50;21.60;;;;;;;;;;109497;1251;59227;-80
2023/12/15 09:22:50;;;;;;;30.40;19.00;;;;;;;;;;108211;1253;59548;-79
2023/12/15 09:25:16;;;;;;;30.50;16.80;;;;;;;;;;107455;1251;59935;-80
2023/12/15 09:27:43;;;;;;;37.40;19.80;;;;;;;;;;107342;1255;59808;-79
2023/12/15 09:30:09;;;;;;;36.80;19.60;;;;;;;;;;107492;1253;59715;-79
2023/12/15 09:32:36;;;;;;;35.30;19.10;;;;;;;;;;107587;1251;60710;-79
2023/12/15 09:35:02;;;;;;;31.00;17.00;;;;;;;;;;107579;1253;59899;-79
2023/12/15 09:37:29;;;;;;;32.60;18.30;;;;;;;;;;107398;1253;61949;-79
2023/12/15 09:39:55;;;;;;;27.60;16.60;;;;;;;;;;109499;1250;63724;-80
2023/12/15 09:42:23;;;;;;;24.70;13.10;;;;;;;;;;109493;1251;59221;-79
2023/12/15 09:44:50;;;;;;;24.20;14.40;;;;;;;;;;109527;1251;60928;-79
2023/12/15 09:47:20;;;;;;;21.40;12.90;;;;;;;;;;109500;1251;59037;-80
2023/12/15 09:49:47;;;;;;;26.00;14.20;;;;;;;;;;109554;1251;59191;-79
2023/12/15 09:52:14;;;;;;;26.50;14.10;;;;;;;;;;109542;1250;63150;-80
2023/12/15 09:54:40;;;;;;;29.50;15.60;;;;;;;;;;109540;1251;59232;-79
2023/12/15 09:57:07;;;;;;;26.60;15.30;;;;;;;;;;109481;1251;58943;-80
2023/12/15 09:59:37;;;;;;;30.00;18.30;;;;;;;;;;109486;1253;58843;-79
2023/12/15 10:02:04;;;;;;;32.40;17.80;;;;;;;;;;109487;1252;58943;-79
2023/12/15 10:04:30;;;;;;;32.00;18.50;;;;;;;;;;109533;1251;60395;-80
2023/12/15 10:06:56;;;;;;;39.20;21.00;;;;;;;;;;109503;1250;59159;-80
2023/12/15 10:09:23;;;;;;;40.90;23.60;;;;;;;;;;109493;1255;59479;-80
2023/12/15 10:11:50;;;;;;;36.00;19.60;;;;;;;;;;109557;1251;58972;-80
2023/12/15 10:14:19;;;;;;;35.30;19.40;;;;;;;;;;109476;1250;58949;-80
2023/12/15 10:16:46;;;;;;;36.50;20.60;;;;;;;;;;109553;1251;61932;-79
2023/12/15 10:19:12;;;;;;;42.90;22.00;;;;;;;;;;109433;1253;59097;-79
2023/12/15 10:21:39;;;;;;;34.30;20.30;;;;;;;;;;107253;1253;60890;-80
2023/12/15 10:24:31;;;;;;;34.90;21.70;;;;;;;;;;107433;1251;61410;-78
2023/12/15 10:27:00;;;;;;;43.70;25.20;;;;;;;;;;107332;1251;60860;-79
2023/12/15 10:29:26;;;;;;;42.60;24.00;;;;;;;;;;107243;1251;62076;-79
2023/12/15 10:31:53;;;;;;;38.90;21.60;;;;;;;;;;107255;1253;59309;-80
2023/12/15 10:34:23;;;;;;;40.50;22.80;;;;;;;;;;107399;1251;60861;-79
2023/12/15 10:36:49;;;;;;;44.80;23.10;;;;;;;;;;107500;1253;60744;-79
2023/12/15 10:39:17;;;;;;;43.20;24.30;;;;;;;;;;107657;1251;59093;-79
2023/12/15 10:41:43;;;;;;;39.10;22.30;;;;;;;;;;107523;1251;61601;-79
2023/12/15 10:44:13;;;;;;;40.80;22.70;;;;;;;;;;107683;1251;59626;-79
2023/12/15 10:46:40;;;;;;;35.90;20.70;;;;;;;;;;107974;1253;59628;-79
2023/12/15 10:49:06;;;;;;;39.90;20.80;;;;;;;;;;107649;1253;60841;-79
2023/12/15 10:51:33;;;;;;;42.90;23.40;;;;;;;;;;107519;1253;59650;-80
2023/12/15 10:54:01;;;;;;;40.50;21.50;;;;;;;;;;107709;1252;60883;-80
2023/12/15 10:56:27;;;;;;;34.50;21.50;;;;;;;;;;107665;1254;59848;-79
2023/12/15 10:58:53;;;;;;;36.60;20.80;;;;;;;;;;108381;1251;59786;-79
2023/12/15 11:01:22;;;;;;;33.90;20.50;;;;;;;;;;109517;1252;58896;-79
2023/12/15 11:03:48;;;;;;;48.00;27.00;;;;;;;;;;109418;1252;59060;-80
2023/12/15 11:06:24;;;;;;;40.00;24.90;;;;;;;;;;109437;1251;59267;-80
2023/12/15 11:08:50;;;;;;;41.60;21.00;;;;;;;;;;109457;1251;59619;-80
2023/12/15 11:11:20;;;;;;;36.40;21.70;;;;;;;;;;109451;1255;58937;-80
2023/12/15 11:14:01;;;;;;;36.50;19.70;;;;;;;;;;107765;1251;60776;-80
2023/12/15 11:16:32;;;;;;;33.80;18.50;;;;;;;;;;107615;1250;59821;-80
2023/12/15 11:18:59;;;;;;;35.90;20.90;;;;;;;;;;107648;1253;62727;-79
2023/12/15 11:21:26;;;;;;;38.00;20.60;;;;;;;;;;107552;1251;59796;-79
2023/12/15 11:23:59;;;;;;;35.60;20.30;;;;;;;;;;107786;1251;59657;-80
2023/12/15 11:26:27;;;;;;;36.40;20.70;;;;;;;;;;107716;1251;61212;-79
2023/12/15 11:29:01;;;;;;;36.70;22.30;;;;;;;;;;107848;1253;60914;-80
2023/12/15 11:31:28;;;;;;;31.90;18.30;;;;;;;;;;107606;1253;62083;-80
2023/12/15 11:33:55;;;;;;;42.80;19.80;;;;;;;;;;109445;1251;59041;-80
2023/12/15 11:36:21;;;;;;;42.80;21.80;;;;;;;;;;109478;1253;59090;-80
2023/12/15 11:38:48;;;;;;;98.70;43.20;;;;;;;;;;109400;1250;59524;-80
2023/12/15 11:41:16;;;;;;;47.10;22.30;;;;;;;;;;109475;1251;58959;-80
2023/12/15 11:43:43;;;;;;;37.90;20.60;;;;;;;;;;109429;1251;61068;-80
2023/12/15 11:46:12;;;;;;;134.70;61.20;;;;;;;;;;109456;1251;59605;-80
2023/12/15 11:48:40;;;;;;;81.70;42.00;;;;;;;;;;109449;1253;60061;-81
2023/12/15 11:51:08;;;;;;;52.00;28.60;;;;;;;;;;109451;1251;59281;-80
2023/12/15 11:53:41;;;;;;;66.60;31.00;;;;;;;;;;109527;1251;59083;-81
2023/12/15 11:56:10;;;;;;;49.80;24.40;;;;;;;;;;109458;1253;63151;-80
2023/12/15 11:58:37;;;;;;;184.30;64.60;;;;;;;;;;109470;1251;58934;-79
2023/12/15 12:01:04;;;;;;;175.10;58.40;;;;;;;;;;109495;1251;59790;-80
2023/12/15 12:03:33;;;;;;;75.50;27.80;;;;;;;;;;109490;1253;59319;-79
2023/12/15 12:06:05;;;;;;;28.30;11.40;;;;;;;;;;109467;1251;59348;-80
2023/12/15 12:08:35;;;;;;;15.50;7.80;;;;;;;;;;108022;1255;61933;-80
2023/12/15 12:11:02;;;;;;;43.90;18.40;;;;;;;;;;107487;1255;61362;-79
2023/12/15 12:13:32;;;;;;;14.50;7.10;;;;;;;;;;107471;1251;59846;-80
2023/12/15 12:16:00;;;;;;;11.10;6.00;;;;;;;;;;107905;1251;59725;-80
2023/12/15 12:18:26;;;;;;;13.30;6.60;;;;;;;;;;107991;1251;59680;-80
2023/12/15 12:20:54;;;;;;;12.10;5.80;;;;;;;;;;107871;1250;63157;-81
2023/12/15 12:23:27;;;;;;;20.90;10.70;;;;;;;;;;107955;1251;59886;-80
2023/12/15 12:25:57;;;;;;;18.50;8.10;;;;;;;;;;107162;1251;62238;-80
2023/12/15 12:28:36;;;;;;;12.70;6.50;;;;;;;;;;107347;1256;60956;-79
2023/12/15 12:31:03;;;;;;;12.60;7.10;;;;;;;;;;107276;1254;60711;-80
2023/12/15 12:33:30;;;;;;;15.30;7.90;;;;;;;;;;108107;1251;60427;-79
2023/12/15 12:35:57;;;;;;;16.60;8.10;;;;;;;;;;108798;1251;60866;-81
2023/12/15 12:38:23;;;;;;;15.70;8.70;;;;;;;;;;107492;1255;59699;-80
2023/12/15 12:40:49;;;;;;;18.60;8.70;;;;;;;;;;107329;1251;59749;-80
2023/12/15 12:43:16;;;;;;;18.80;11.40;;;;;;;;;;107400;1251;59225;-79
2023/12/15 12:45:43;;;;;;;21.40;12.60;;;;;;;;;;109091;1251;59729;-80
2023/12/15 12:48:09;;;;;;;28.50;14.60;;;;;;;;;;109443;1251;59079;-79
2023/12/15 12:50:35;;;;;;;33.00;16.90;;;;;;;;;;109489;1251;59259;-80
2023/12/15 12:53:02;;;;;;;22.00;11.30;;;;;;;;;;109418;1255;59328;-79
2023/12/15 12:55:28;;;;;;;24.30;12.60;;;;;;;;;;109477;1251;59020;-80
2023/12/15 12:57:56;;;;;;;22.20;12.40;;;;;;;;;;109562;1251;58987;-79
2023/12/15 13:00:22;;;;;;;18.30;10.50;;;;;;;;;;108899;1255;59827;-79
2023/12/15 13:02:50;;;;;;;24.30;12.70;;;;;;;;;;107286;1254;59805;-80
2023/12/15 13:05:17;;;;;;;28.60;12.70;;;;;;;;;;107224;1251;61431;-80
2023/12/15 13:07:43;;;;;;;25.80;13.80;;;;;;;;;;107184;1256;59814;-80
2023/12/15 13:10:14;;;;;;;29.80;14.10;;;;;;;;;;107192;1251;60514;-80
2023/12/15 13:12:42;;;;;;;29.20;14.30;;;;;;;;;;107776;1251;60800;-80
2023/12/15 13:15:10;;;;;;;30.30;13.50;;;;;;;;;;107887;1256;61149;-80
2023/12/15 13:17:37;;;;;;;44.00;19.00;;;;;;;;;;107832;1255;59756;-81
2023/12/15 13:20:03;;;;;;;55.50;26.40;;;;;;;;;;107693;1251;59718;-80
2023/12/15 13:22:30;;;;;;;80.30;36.00;;;;;;;;;;107398;1251;61889;-81
2023/12/15 13:24:56;;;;;;;76.90;36.50;;;;;;;;;;107712;1251;59569;-82
2023/12/15 13:27:23;;;;;;;39.60;19.50;;;;;;;;;;107785;1254;59221;-80
2023/12/15 13:29:50;;;;;;;171.90;67.50;;;;;;;;;;107694;1251;59690;-81
2023/12/15 13:32:17;;;;;;;134.90;59.30;;;;;;;;;;107660;1251;59288;-80
2023/12/15 13:34:45;;;;;;;42.30;22.90;;;;;;;;;;107800;1254;60633;-80
2023/12/15 13:37:12;;;;;;;46.30;20.60;;;;;;;;;;107782;1251;59523;-81
2023/12/15 13:39:39;;;;;;;30.50;14.90;;;;;;;;;;107596;1251;59629;-80
2023/12/15 13:42:05;;;;;;;32.50;14.80;;;;;;;;;;107784;1251;59872;-81
2023/12/15 13:44:32;;;;;;;32.10;15.60;;;;;;;;;;107184;1254;60951;-80
2023/12/15 13:46:59;;;;;;;52.90;25.00;;;;;;;;;;107120;1251;59906;-80
2023/12/15 13:49:27;;;;;;;38.40;19.80;;;;;;;;;;107137;1251;60145;-80
2023/12/15 13:51:53;;;;;;;29.40;16.30;;;;;;;;;;109511;1250;60847;-80
2023/12/15 13:54:20;;;;;;;26.30;13.70;;;;;;;;;;109483;1251;58906;-80
2023/12/15 13:56:46;;;;;;;56.00;29.90;;;;;;;;;;109552;1251;59195;-80
2023/12/15 13:59:12;;;;;;;61.60;34.60;;;;;;;;;;109566;1251;59234;-80
2023/12/15 14:01:39;;;;;;;31.00;18.70;;;;;;;;;;109520;1251;58801;-79
2023/12/15 14:04:09;;;;;;;137.10;51.00;;;;;;;;;;107463;1251;61887;-79
2023/12/15 14:06:35;;;;;;;158.60;55.80;;;;;;;;;;107169;1251;61903;-79